sensor_id;sensor_type;location;lat;lon;timestamp;P1;durP1;ratioP1;P2;durP2;ratioP2
40955;SDS011;26687;48.254;11.454;2023-04-24T00:02:41;1.25;;;0.70;;
40955;SDS011;26687;48.254;11.454;2023-04-24T00:05:46;0.80;;;0.50;;
40955;SDS011;26687;48.254;11.454;2023-04-24T00:08:46;1.10;;;0.73;;
40955;SDS011;26687;48.254;11.454;2023-04-24T00:11:46;0.80;;;0.60;;
40955;SDS011;26687;48.254;11.454;2023-04-24T00:14:47;1.07;;;0.60;;
40955;SDS011;26687;48.254;11.454;2023-04-24T00:17:47;1.42;;;0.40;;
40955;SDS011;26687;48.254;11.454;2023-04-24T00:20:47;0.50;;;0.40;;
40955;SDS011;26687;48.254;11.454;2023-04-24T00:23:47;0.80;;;0.40;;
40955;SDS011;26687;48.254;11.454;2023-04-24T00:26:48;0.80;;;0.50;;
40955;SDS011;26687;48.254;11.454;2023-04-24T00:29:48;1.15;;;0.55;;
40955;SDS011;26687;48.254;11.454;2023-04-24T00:32:48;0.38;;;0.35;;
40955;SDS011;26687;48.254;11.454;2023-04-24T00:35:48;0.50;;;0.50;;
40955;SDS011;26687;48.254;11.454;2023-04-24T00:38:48;1.48;;;0.70;;
40955;SDS011;26687;48.254;11.454;2023-04-24T00:41:48;0.70;;;0.50;;
40955;SDS011;26687;48.254;11.454;2023-04-24T00:44:49;0.67;;;0.40;;
40955;SDS011;26687;48.254;11.454;2023-04-24T00:47:49;0.70;;;0.50;;
40955;SDS011;26687;48.254;11.454;2023-04-24T00:50:52;0.60;;;0.40;;
40955;SDS011;26687;48.254;11.454;2023-04-24T00:53:52;1.13;;;0.43;;
40955;SDS011;26687;48.254;11.454;2023-04-24T00:56:52;0.60;;;0.43;;
40955;SDS011;26687;48.254;11.454;2023-04-24T00:59:52;0.60;;;0.40;;
40955;SDS011;26687;48.254;11.454;2023-04-24T01:02:53;0.95;;;0.40;;
40955;SDS011;26687;48.254;11.454;2023-04-24T01:05:54;0.60;;;0.50;;
40955;SDS011;26687;48.254;11.454;2023-04-24T01:08:54;1.08;;;0.40;;
40955;SDS011;26687;48.254;11.454;2023-04-24T01:11:55;0.52;;;0.30;;
40955;SDS011;26687;48.254;11.454;2023-04-24T01:14:56;0.38;;;0.25;;
40955;SDS011;26687;48.254;11.454;2023-04-24T01:17:56;0.30;;;0.28;;
40955;SDS011;26687;48.254;11.454;2023-04-24T01:20:57;1.67;;;0.43;;
40955;SDS011;26687;48.254;11.454;2023-04-24T01:23:58;0.30;;;0.30;;
40955;SDS011;26687;48.254;11.454;2023-04-24T01:26:58;0.43;;;0.20;;
40955;SDS011;26687;48.254;11.454;2023-04-24T01:29:58;0.57;;;0.20;;
40955;SDS011;26687;48.254;11.454;2023-04-24T01:32:58;0.20;;;0.20;;
40955;SDS011;26687;48.254;11.454;2023-04-24T01:35:59;0.50;;;0.17;;
40955;SDS011;26687;48.254;11.454;2023-04-24T01:38:59;0.88;;;0.20;;
40955;SDS011;26687;48.254;11.454;2023-04-24T01:42:00;0.40;;;0.13;;
40955;SDS011;26687;48.254;11.454;2023-04-24T01:45:02;7.82;;;0.63;;
40955;SDS011;26687;48.254;11.454;2023-04-24T01:48:03;0.85;;;0.20;;
40955;SDS011;26687;48.254;11.454;2023-04-24T01:51:04;0.82;;;0.20;;
40955;SDS011;26687;48.254;11.454;2023-04-24T01:54:04;0.30;;;0.20;;
40955;SDS011;26687;48.254;11.454;2023-04-24T01:57:05;0.85;;;0.30;;
40955;SDS011;26687;48.254;11.454;2023-04-24T02:00:05;0.80;;;0.20;;
40955;SDS011;26687;48.254;11.454;2023-04-24T02:03:07;0.95;;;0.13;;
40955;SDS011;26687;48.254;11.454;2023-04-24T02:06:07;0.63;;;0.20;;
40955;SDS011;26687;48.254;11.454;2023-04-24T02:09:07;0.47;;;0.20;;
40955;SDS011;26687;48.254;11.454;2023-04-24T02:12:08;0.95;;;0.30;;
40955;SDS011;26687;48.254;11.454;2023-04-24T02:15:08;0.30;;;0.20;;
40955;SDS011;26687;48.254;11.454;2023-04-24T02:18:08;0.85;;;0.30;;
40955;SDS011;26687;48.254;11.454;2023-04-24T02:21:08;0.10;;;0.10;;
40955;SDS011;26687;48.254;11.454;2023-04-24T02:24:09;0.40;;;0.20;;
40955;SDS011;26687;48.254;11.454;2023-04-24T02:27:09;0.40;;;0.20;;
40955;SDS011;26687;48.254;11.454;2023-04-24T02:30:10;0.30;;;0.20;;
40955;SDS011;26687;48.254;11.454;2023-04-24T02:33:11;0.80;;;0.20;;
40955;SDS011;26687;48.254;11.454;2023-04-24T02:36:11;0.43;;;0.20;;
40955;SDS011;26687;48.254;11.454;2023-04-24T02:39:11;0.70;;;0.25;;
40955;SDS011;26687;48.254;11.454;2023-04-24T02:42:11;0.10;;;0.10;;
40955;SDS011;26687;48.254;11.454;2023-04-24T02:45:11;0.20;;;0.10;;
40955;SDS011;26687;48.254;11.454;2023-04-24T02:48:12;0.28;;;0.10;;
40955;SDS011;26687;48.254;11.454;2023-04-24T02:51:12;0.20;;;0.10;;
40955;SDS011;26687;48.254;11.454;2023-04-24T02:54:12;0.35;;;0.20;;
40955;SDS011;26687;48.254;11.454;2023-04-24T02:57:13;0.20;;;0.20;;
40955;SDS011;26687;48.254;11.454;2023-04-24T03:00:13;0.25;;;0.20;;
40955;SDS011;26687;48.254;11.454;2023-04-24T03:03:13;0.32;;;0.20;;
40955;SDS011;26687;48.254;11.454;2023-04-24T03:06:13;2.88;;;0.40;;
40955;SDS011;26687;48.254;11.454;2023-04-24T03:09:14;0.40;;;0.28;;
40955;SDS011;26687;48.254;11.454;2023-04-24T03:12:14;0.20;;;0.20;;
40955;SDS011;26687;48.254;11.454;2023-04-24T03:15:17;0.20;;;0.20;;
40955;SDS011;26687;48.254;11.454;2023-04-24T03:18:17;0.88;;;0.22;;
40955;SDS011;26687;48.254;11.454;2023-04-24T03:21:17;0.65;;;0.20;;
40955;SDS011;26687;48.254;11.454;2023-04-24T03:24:17;0.67;;;0.20;;
40955;SDS011;26687;48.254;11.454;2023-04-24T03:27:17;0.30;;;0.20;;
40955;SDS011;26687;48.254;11.454;2023-04-24T03:30:17;0.73;;;0.40;;
40955;SDS011;26687;48.254;11.454;2023-04-24T03:33:17;0.50;;;0.30;;
40955;SDS011;26687;48.254;11.454;2023-04-24T03:36:18;1.45;;;0.43;;
40955;SDS011;26687;48.254;11.454;2023-04-24T03:39:19;0.75;;;0.40;;
40955;SDS011;26687;48.254;11.454;2023-04-24T03:42:19;0.82;;;0.22;;
40955;SDS011;26687;48.254;11.454;2023-04-24T03:45:19;0.65;;;0.40;;
40955;SDS011;26687;48.254;11.454;2023-04-24T03:48:20;1.23;;;0.38;;
40955;SDS011;26687;48.254;11.454;2023-04-24T03:51:20;0.77;;;0.28;;
40955;SDS011;26687;48.254;11.454;2023-04-24T03:54:20;0.30;;;0.30;;
40955;SDS011;26687;48.254;11.454;2023-04-24T03:57:20;0.98;;;0.40;;
40955;SDS011;26687;48.254;11.454;2023-04-24T04:00:20;0.30;;;0.30;;
40955;SDS011;26687;48.254;11.454;2023-04-24T04:03:21;0.40;;;0.23;;
40955;SDS011;26687;48.254;11.454;2023-04-24T04:06:21;0.95;;;0.43;;
40955;SDS011;26687;48.254;11.454;2023-04-24T04:09:21;0.98;;;0.30;;
40955;SDS011;26687;48.254;11.454;2023-04-24T04:12:22;0.25;;;0.17;;
40955;SDS011;26687;48.254;11.454;2023-04-24T04:15:22;0.40;;;0.40;;
40955;SDS011;26687;48.254;11.454;2023-04-24T04:18:22;2.10;;;0.50;;
40955;SDS011;26687;48.254;11.454;2023-04-24T04:21:22;0.45;;;0.30;;
40955;SDS011;26687;48.254;11.454;2023-04-24T04:24:22;0.60;;;0.37;;
40955;SDS011;26687;48.254;11.454;2023-04-24T04:27:24;0.93;;;0.30;;
40955;SDS011;26687;48.254;11.454;2023-04-24T04:30:24;0.35;;;0.20;;
40955;SDS011;26687;48.254;11.454;2023-04-24T04:33:24;0.50;;;0.23;;
40955;SDS011;26687;48.254;11.454;2023-04-24T04:36:25;1.88;;;0.20;;
40955;SDS011;26687;48.254;11.454;2023-04-24T04:39:25;0.95;;;0.50;;
40955;SDS011;26687;48.254;11.454;2023-04-24T04:42:28;0.77;;;0.40;;
40955;SDS011;26687;48.254;11.454;2023-04-24T04:45:28;0.32;;;0.30;;
40955;SDS011;26687;48.254;11.454;2023-04-24T04:48:28;0.30;;;0.20;;
40955;SDS011;26687;48.254;11.454;2023-04-24T04:51:28;0.43;;;0.30;;
40955;SDS011;26687;48.254;11.454;2023-04-24T04:54:29;0.45;;;0.25;;
40955;SDS011;26687;48.254;11.454;2023-04-24T04:57:29;0.57;;;0.20;;
40955;SDS011;26687;48.254;11.454;2023-04-24T05:00:30;1.00;;;0.20;;
40955;SDS011;26687;48.254;11.454;2023-04-24T05:03:35;0.68;;;0.30;;
40955;SDS011;26687;48.254;11.454;2023-04-24T05:06:35;0.90;;;0.25;;
40955;SDS011;26687;48.254;11.454;2023-04-24T05:09:36;0.73;;;0.30;;
40955;SDS011;26687;48.254;11.454;2023-04-24T05:12:36;0.20;;;0.20;;
40955;SDS011;26687;48.254;11.454;2023-04-24T05:15:36;0.70;;;0.38;;
40955;SDS011;26687;48.254;11.454;2023-04-24T05:18:37;1.23;;;0.28;;
40955;SDS011;26687;48.254;11.454;2023-04-24T05:21:37;0.82;;;0.20;;
40955;SDS011;26687;48.254;11.454;2023-04-24T05:24:37;0.50;;;0.10;;
40955;SDS011;26687;48.254;11.454;2023-04-24T05:27:37;0.93;;;0.43;;
40955;SDS011;26687;48.254;11.454;2023-04-24T05:30:38;0.30;;;0.13;;
40955;SDS011;26687;48.254;11.454;2023-04-24T05:33:38;0.60;;;0.10;;
40955;SDS011;26687;48.254;11.454;2023-04-24T05:36:38;0.60;;;0.30;;
40955;SDS011;26687;48.254;11.454;2023-04-24T05:39:38;0.40;;;0.30;;
40955;SDS011;26687;48.254;11.454;2023-04-24T05:42:39;0.25;;;0.20;;
40955;SDS011;26687;48.254;11.454;2023-04-24T05:45:39;0.73;;;0.30;;
40955;SDS011;26687;48.254;11.454;2023-04-24T05:48:40;0.95;;;0.35;;
40955;SDS011;26687;48.254;11.454;2023-04-24T05:51:40;0.88;;;0.30;;
40955;SDS011;26687;48.254;11.454;2023-04-24T05:54:41;1.52;;;0.35;;
40955;SDS011;26687;48.254;11.454;2023-04-24T05:57:41;0.25;;;0.10;;
40955;SDS011;26687;48.254;11.454;2023-04-24T06:00:41;1.30;;;0.20;;
40955;SDS011;26687;48.254;11.454;2023-04-24T06:03:42;0.50;;;0.20;;
40955;SDS011;26687;48.254;11.454;2023-04-24T06:06:42;0.23;;;0.20;;
40955;SDS011;26687;48.254;11.454;2023-04-24T06:09:43;0.67;;;0.10;;
40955;SDS011;26687;48.254;11.454;2023-04-24T06:12:43;0.80;;;0.25;;
40955;SDS011;26687;48.254;11.454;2023-04-24T06:15:43;0.40;;;0.10;;
40955;SDS011;26687;48.254;11.454;2023-04-24T06:18:43;0.33;;;0.17;;
40955;SDS011;26687;48.254;11.454;2023-04-24T06:21:43;0.30;;;0.10;;
40955;SDS011;26687;48.254;11.454;2023-04-24T06:24:44;1.00;;;0.22;;
40955;SDS011;26687;48.254;11.454;2023-04-24T06:27:44;0.30;;;0.10;;
40955;SDS011;26687;48.254;11.454;2023-04-24T06:30:44;0.28;;;0.10;;
40955;SDS011;26687;48.254;11.454;2023-04-24T06:33:45;1.85;;;0.17;;
40955;SDS011;26687;48.254;11.454;2023-04-24T06:36:46;1.17;;;0.15;;
40955;SDS011;26687;48.254;11.454;2023-04-24T06:39:46;0.55;;;0.20;;
40955;SDS011;26687;48.254;11.454;2023-04-24T06:42:46;0.60;;;0.20;;
40955;SDS011;26687;48.254;11.454;2023-04-24T06:45:47;0.13;;;0.10;;
40955;SDS011;26687;48.254;11.454;2023-04-24T06:48:47;0.27;;;0.17;;
40955;SDS011;26687;48.254;11.454;2023-04-24T06:51:47;0.53;;;0.27;;
40955;SDS011;26687;48.254;11.454;2023-04-24T06:54:47;0.38;;;0.10;;
40955;SDS011;26687;48.254;11.454;2023-04-24T06:57:47;0.73;;;0.10;;
40955;SDS011;26687;48.254;11.454;2023-04-24T07:00:48;0.77;;;0.10;;
40955;SDS011;26687;48.254;11.454;2023-04-24T07:03:48;0.60;;;0.30;;
40955;SDS011;26687;48.254;11.454;2023-04-24T07:06:48;3.33;;;0.20;;
40955;SDS011;26687;48.254;11.454;2023-04-24T07:09:49;1.17;;;0.20;;
40955;SDS011;26687;48.254;11.454;2023-04-24T07:12:50;0.57;;;0.15;;
40955;SDS011;26687;48.254;11.454;2023-04-24T07:15:50;0.73;;;0.22;;
40955;SDS011;26687;48.254;11.454;2023-04-24T07:18:52;0.68;;;0.30;;
40955;SDS011;26687;48.254;11.454;2023-04-24T07:21:52;2.05;;;0.17;;
40955;SDS011;26687;48.254;11.454;2023-04-24T07:24:54;2.72;;;0.17;;
40955;SDS011;26687;48.254;11.454;2023-04-24T07:27:55;0.83;;;0.10;;
40955;SDS011;26687;48.254;11.454;2023-04-24T07:30:55;0.20;;;0.10;;
40955;SDS011;26687;48.254;11.454;2023-04-24T07:33:55;0.22;;;0.10;;
40955;SDS011;26687;48.254;11.454;2023-04-24T07:36:57;0.55;;;0.10;;
40955;SDS011;26687;48.254;11.454;2023-04-24T07:39:58;0.10;;;0.00;;
40955;SDS011;26687;48.254;11.454;2023-04-24T07:42:58;0.77;;;0.10;;
40955;SDS011;26687;48.254;11.454;2023-04-24T07:45:59;0.22;;;0.08;;
40955;SDS011;26687;48.254;11.454;2023-04-24T07:48:59;0.30;;;0.10;;
40955;SDS011;26687;48.254;11.454;2023-04-24T07:52:01;0.32;;;0.20;;
40955;SDS011;26687;48.254;11.454;2023-04-24T07:55:02;0.28;;;0.10;;
40955;SDS011;26687;48.254;11.454;2023-04-24T07:58:02;0.40;;;0.22;;
40955;SDS011;26687;48.254;11.454;2023-04-24T08:01:03;2.27;;;0.40;;
40955;SDS011;26687;48.254;11.454;2023-04-24T08:04:03;0.27;;;0.20;;
40955;SDS011;26687;48.254;11.454;2023-04-24T08:07:03;0.60;;;0.20;;
40955;SDS011;26687;48.254;11.454;2023-04-24T08:10:03;2.83;;;0.30;;
40955;SDS011;26687;48.254;11.454;2023-04-24T08:13:04;1.65;;;0.60;;
40955;SDS011;26687;48.254;11.454;2023-04-24T08:16:04;2.57;;;0.20;;
40955;SDS011;26687;48.254;11.454;2023-04-24T08:19:04;0.70;;;0.10;;
40955;SDS011;26687;48.254;11.454;2023-04-24T08:22:05;0.27;;;0.20;;
40955;SDS011;26687;48.254;11.454;2023-04-24T08:25:05;0.15;;;0.15;;
40955;SDS011;26687;48.254;11.454;2023-04-24T08:28:05;0.30;;;0.10;;
40955;SDS011;26687;48.254;11.454;2023-04-24T08:31:06;1.10;;;0.10;;
40955;SDS011;26687;48.254;11.454;2023-04-24T08:34:06;0.83;;;0.20;;
40955;SDS011;26687;48.254;11.454;2023-04-24T08:37:06;0.45;;;0.30;;
40955;SDS011;26687;48.254;11.454;2023-04-24T08:40:11;0.70;;;0.20;;
40955;SDS011;26687;48.254;11.454;2023-04-24T08:43:12;0.47;;;0.20;;
40955;SDS011;26687;48.254;11.454;2023-04-24T08:46:13;1.08;;;0.40;;
40955;SDS011;26687;48.254;11.454;2023-04-24T08:49:14;0.80;;;0.30;;
40955;SDS011;26687;48.254;11.454;2023-04-24T08:52:16;0.55;;;0.30;;
40955;SDS011;26687;48.254;11.454;2023-04-24T08:55:16;0.80;;;0.38;;
40955;SDS011;26687;48.254;11.454;2023-04-24T08:58:18;0.50;;;0.35;;
40955;SDS011;26687;48.254;11.454;2023-04-24T09:01:19;0.40;;;0.40;;
40955;SDS011;26687;48.254;11.454;2023-04-24T09:04:19;0.50;;;0.45;;
40955;SDS011;26687;48.254;11.454;2023-04-24T09:07:22;0.50;;;0.30;;
40955;SDS011;26687;48.254;11.454;2023-04-24T09:10:24;1.57;;;0.30;;
40955;SDS011;26687;48.254;11.454;2023-04-24T09:13:24;1.60;;;0.30;;
40955;SDS011;26687;48.254;11.454;2023-04-24T09:16:25;0.87;;;0.60;;
40955;SDS011;26687;48.254;11.454;2023-04-24T09:19:26;1.45;;;0.50;;
40955;SDS011;26687;48.254;11.454;2023-04-24T09:22:28;0.60;;;0.60;;
40955;SDS011;26687;48.254;11.454;2023-04-24T09:25:32;1.05;;;0.40;;
40955;SDS011;26687;48.254;11.454;2023-04-24T09:28:40;0.45;;;0.40;;
40955;SDS011;26687;48.254;11.454;2023-04-24T09:31:40;0.90;;;0.45;;
40955;SDS011;26687;48.254;11.454;2023-04-24T09:34:40;1.20;;;0.50;;
40955;SDS011;26687;48.254;11.454;2023-04-24T09:37:41;0.53;;;0.47;;
40955;SDS011;26687;48.254;11.454;2023-04-24T09:40:42;1.77;;;0.50;;
40955;SDS011;26687;48.254;11.454;2023-04-24T09:43:42;0.90;;;0.60;;
40955;SDS011;26687;48.254;11.454;2023-04-24T09:46:46;0.77;;;0.43;;
40955;SDS011;26687;48.254;11.454;2023-04-24T09:49:49;4.60;;;0.90;;
40955;SDS011;26687;48.254;11.454;2023-04-24T09:52:56;2.15;;;0.70;;
40955;SDS011;26687;48.254;11.454;2023-04-24T09:56:06;0.90;;;0.60;;
40955;SDS011;26687;48.254;11.454;2023-04-24T09:59:07;0.50;;;0.50;;
40955;SDS011;26687;48.254;11.454;2023-04-24T10:02:16;0.57;;;0.57;;
40955;SDS011;26687;48.254;11.454;2023-04-24T10:05:16;0.98;;;0.70;;
40955;SDS011;26687;48.254;11.454;2023-04-24T10:08:16;1.23;;;0.67;;
40955;SDS011;26687;48.254;11.454;2023-04-24T10:11:16;0.70;;;0.60;;
40955;SDS011;26687;48.254;11.454;2023-04-24T10:14:18;1.27;;;0.90;;
40955;SDS011;26687;48.254;11.454;2023-04-24T10:17:18;0.85;;;0.63;;
40955;SDS011;26687;48.254;11.454;2023-04-24T10:20:21;0.65;;;0.40;;
40955;SDS011;26687;48.254;11.454;2023-04-24T10:23:22;0.65;;;0.50;;
40955;SDS011;26687;48.254;11.454;2023-04-24T10:26:23;0.70;;;0.70;;
40955;SDS011;26687;48.254;11.454;2023-04-24T10:29:23;1.55;;;0.70;;
40955;SDS011;26687;48.254;11.454;2023-04-24T10:32:24;1.02;;;0.90;;
40955;SDS011;26687;48.254;11.454;2023-04-24T10:35:24;1.17;;;0.65;;
40955;SDS011;26687;48.254;11.454;2023-04-24T10:38:26;1.00;;;0.60;;
40955;SDS011;26687;48.254;11.454;2023-04-24T10:41:27;0.85;;;0.50;;
40955;SDS011;26687;48.254;11.454;2023-04-24T10:44:36;1.02;;;0.60;;
40955;SDS011;26687;48.254;11.454;2023-04-24T10:47:39;0.70;;;0.32;;
40955;SDS011;26687;48.254;11.454;2023-04-24T10:50:47;0.30;;;0.25;;
40955;SDS011;26687;48.254;11.454;2023-04-24T10:53:47;0.93;;;0.50;;
40955;SDS011;26687;48.254;11.454;2023-04-24T10:56:50;1.00;;;0.40;;
40955;SDS011;26687;48.254;11.454;2023-04-24T11:03:22;0.82;;;0.55;;
40955;SDS011;26687;48.254;11.454;2023-04-24T11:09:32;0.73;;;0.40;;
40955;SDS011;26687;48.254;11.454;2023-04-24T11:12:34;0.50;;;0.40;;
40955;SDS011;26687;48.254;11.454;2023-04-24T11:15:35;0.75;;;0.47;;
40955;SDS011;26687;48.254;11.454;2023-04-24T11:18:38;0.70;;;0.43;;
40955;SDS011;26687;48.254;11.454;2023-04-24T11:27:45;0.67;;;0.47;;
40955;SDS011;26687;48.254;11.454;2023-04-24T11:30:46;0.77;;;0.40;;
40955;SDS011;26687;48.254;11.454;2023-04-24T11:33:47;1.10;;;0.45;;
40955;SDS011;26687;48.254;11.454;2023-04-24T11:36:47;1.08;;;0.50;;
40955;SDS011;26687;48.254;11.454;2023-04-24T11:39:50;1.42;;;0.70;;
40955;SDS011;26687;48.254;11.454;2023-04-24T11:42:50;1.30;;;0.65;;
40955;SDS011;26687;48.254;11.454;2023-04-24T11:45:51;0.60;;;0.57;;
40955;SDS011;26687;48.254;11.454;2023-04-24T11:48:51;1.83;;;0.90;;
40955;SDS011;26687;48.254;11.454;2023-04-24T11:51:54;0.68;;;0.60;;
40955;SDS011;26687;48.254;11.454;2023-04-24T11:54:55;2.58;;;0.50;;
40955;SDS011;26687;48.254;11.454;2023-04-24T11:57:58;0.95;;;0.70;;
40955;SDS011;26687;48.254;11.454;2023-04-24T12:00:59;0.60;;;0.52;;
40955;SDS011;26687;48.254;11.454;2023-04-24T12:04:01;1.13;;;0.70;;
40955;SDS011;26687;48.254;11.454;2023-04-24T12:07:04;0.50;;;0.50;;
40955;SDS011;26687;48.254;11.454;2023-04-24T12:10:05;1.20;;;0.60;;
40955;SDS011;26687;48.254;11.454;2023-04-24T12:13:05;0.70;;;0.40;;
40955;SDS011;26687;48.254;11.454;2023-04-24T12:16:09;0.80;;;0.50;;
40955;SDS011;26687;48.254;11.454;2023-04-24T12:19:09;1.20;;;0.65;;
40955;SDS011;26687;48.254;11.454;2023-04-24T12:22:10;0.93;;;0.60;;
40955;SDS011;26687;48.254;11.454;2023-04-24T12:25:10;0.88;;;0.50;;
40955;SDS011;26687;48.254;11.454;2023-04-24T12:28:11;0.98;;;0.50;;
40955;SDS011;26687;48.254;11.454;2023-04-24T12:31:12;1.23;;;0.50;;
40955;SDS011;26687;48.254;11.454;2023-04-24T12:34:22;0.90;;;0.60;;
40955;SDS011;26687;48.254;11.454;2023-04-24T12:37:23;2.58;;;0.50;;
40955;SDS011;26687;48.254;11.454;2023-04-24T12:40:24;0.40;;;0.40;;
40955;SDS011;26687;48.254;11.454;2023-04-24T12:43:25;1.00;;;0.60;;
40955;SDS011;26687;48.254;11.454;2023-04-24T12:46:25;0.60;;;0.43;;
40955;SDS011;26687;48.254;11.454;2023-04-24T12:49:25;1.30;;;0.35;;
40955;SDS011;26687;48.254;11.454;2023-04-24T12:52:26;0.95;;;0.52;;
40955;SDS011;26687;48.254;11.454;2023-04-24T12:55:27;0.50;;;0.40;;
40955;SDS011;26687;48.254;11.454;2023-04-24T12:58:27;1.15;;;0.70;;
40955;SDS011;26687;48.254;11.454;2023-04-24T13:01:27;1.53;;;0.60;;
40955;SDS011;26687;48.254;11.454;2023-04-24T13:04:28;1.98;;;0.70;;
40955;SDS011;26687;48.254;11.454;2023-04-24T13:07:28;1.10;;;0.70;;
40955;SDS011;26687;48.254;11.454;2023-04-24T13:10:28;0.80;;;0.50;;
40955;SDS011;26687;48.254;11.454;2023-04-24T13:13:28;0.57;;;0.50;;
40955;SDS011;26687;48.254;11.454;2023-04-24T13:16:29;0.95;;;0.85;;
40955;SDS011;26687;48.254;11.454;2023-04-24T13:19:29;1.83;;;0.60;;
40955;SDS011;26687;48.254;11.454;2023-04-24T13:22:29;0.88;;;0.50;;
40955;SDS011;26687;48.254;11.454;2023-04-24T13:25:34;1.83;;;0.80;;
40955;SDS011;26687;48.254;11.454;2023-04-24T13:28:34;0.73;;;0.60;;
40955;SDS011;26687;48.254;11.454;2023-04-24T13:31:35;1.65;;;0.65;;
40955;SDS011;26687;48.254;11.454;2023-04-24T13:34:35;1.15;;;0.68;;
40955;SDS011;26687;48.254;11.454;2023-04-24T13:37:36;2.20;;;0.90;;
40955;SDS011;26687;48.254;11.454;2023-04-24T13:40:36;2.07;;;0.83;;
40955;SDS011;26687;48.254;11.454;2023-04-24T13:43:37;0.73;;;0.60;;
40955;SDS011;26687;48.254;11.454;2023-04-24T13:46:37;1.40;;;0.60;;
40955;SDS011;26687;48.254;11.454;2023-04-24T13:49:37;1.08;;;0.60;;
40955;SDS011;26687;48.254;11.454;2023-04-24T13:52:37;1.53;;;0.70;;
40955;SDS011;26687;48.254;11.454;2023-04-24T13:55:38;1.23;;;0.50;;
40955;SDS011;26687;48.254;11.454;2023-04-24T13:58:39;2.97;;;0.70;;
40955;SDS011;26687;48.254;11.454;2023-04-24T14:01:39;0.50;;;0.50;;
40955;SDS011;26687;48.254;11.454;2023-04-24T14:04:40;1.38;;;0.70;;
40955;SDS011;26687;48.254;11.454;2023-04-24T14:07:41;1.17;;;0.70;;
40955;SDS011;26687;48.254;11.454;2023-04-24T14:10:42;0.93;;;0.65;;
40955;SDS011;26687;48.254;11.454;2023-04-24T14:13:42;0.70;;;0.70;;
40955;SDS011;26687;48.254;11.454;2023-04-24T14:16:43;1.13;;;0.60;;
40955;SDS011;26687;48.254;11.454;2023-04-24T14:19:43;0.70;;;0.40;;
40955;SDS011;26687;48.254;11.454;2023-04-24T14:22:43;0.80;;;0.50;;
40955;SDS011;26687;48.254;11.454;2023-04-24T14:25:44;1.88;;;0.90;;
40955;SDS011;26687;48.254;11.454;2023-04-24T14:28:44;1.90;;;0.60;;
40955;SDS011;26687;48.254;11.454;2023-04-24T14:31:44;1.80;;;0.68;;
40955;SDS011;26687;48.254;11.454;2023-04-24T14:34:44;1.27;;;0.60;;
40955;SDS011;26687;48.254;11.454;2023-04-24T14:37:44;1.38;;;0.70;;
40955;SDS011;26687;48.254;11.454;2023-04-24T14:40:45;1.48;;;0.90;;
40955;SDS011;26687;48.254;11.454;2023-04-24T14:43:45;1.10;;;0.80;;
40955;SDS011;26687;48.254;11.454;2023-04-24T14:46:45;2.35;;;0.80;;
40955;SDS011;26687;48.254;11.454;2023-04-24T14:49:45;1.50;;;1.20;;
40955;SDS011;26687;48.254;11.454;2023-04-24T14:52:46;1.42;;;0.60;;
40955;SDS011;26687;48.254;11.454;2023-04-24T14:55:46;2.13;;;0.80;;
40955;SDS011;26687;48.254;11.454;2023-04-24T14:58:46;1.55;;;0.57;;
40955;SDS011;26687;48.254;11.454;2023-04-24T15:01:46;1.03;;;0.60;;
40955;SDS011;26687;48.254;11.454;2023-04-24T15:04:46;1.67;;;0.60;;
40955;SDS011;26687;48.254;11.454;2023-04-24T15:07:47;0.50;;;0.50;;
40955;SDS011;26687;48.254;11.454;2023-04-24T15:10:47;2.00;;;0.80;;
40955;SDS011;26687;48.254;11.454;2023-04-24T15:13:47;1.40;;;0.60;;
40955;SDS011;26687;48.254;11.454;2023-04-24T15:16:47;1.15;;;0.57;;
40955;SDS011;26687;48.254;11.454;2023-04-24T15:19:48;1.30;;;0.65;;
40955;SDS011;26687;48.254;11.454;2023-04-24T15:22:48;0.50;;;0.50;;
40955;SDS011;26687;48.254;11.454;2023-04-24T15:25:48;2.58;;;0.40;;
40955;SDS011;26687;48.254;11.454;2023-04-24T15:28:48;0.80;;;0.70;;
40955;SDS011;26687;48.254;11.454;2023-04-24T15:31:49;0.60;;;0.45;;
40955;SDS011;26687;48.254;11.454;2023-04-24T15:34:49;1.47;;;0.80;;
40955;SDS011;26687;48.254;11.454;2023-04-24T15:37:49;1.95;;;0.70;;
40955;SDS011;26687;48.254;11.454;2023-04-24T15:40:49;0.75;;;0.50;;
40955;SDS011;26687;48.254;11.454;2023-04-24T15:43:50;0.97;;;0.60;;
40955;SDS011;26687;48.254;11.454;2023-04-24T15:46:50;2.03;;;0.50;;
40955;SDS011;26687;48.254;11.454;2023-04-24T15:49:51;1.13;;;0.68;;
40955;SDS011;26687;48.254;11.454;2023-04-24T15:52:52;0.57;;;0.57;;
40955;SDS011;26687;48.254;11.454;2023-04-24T15:55:52;0.70;;;0.60;;
40955;SDS011;26687;48.254;11.454;2023-04-24T15:58:53;1.27;;;0.40;;
40955;SDS011;26687;48.254;11.454;2023-04-24T16:01:54;0.65;;;0.45;;
40955;SDS011;26687;48.254;11.454;2023-04-24T16:04:54;1.00;;;0.45;;
40955;SDS011;26687;48.254;11.454;2023-04-24T16:07:55;1.05;;;0.55;;
40955;SDS011;26687;48.254;11.454;2023-04-24T16:10:55;0.93;;;0.40;;
40955;SDS011;26687;48.254;11.454;2023-04-24T16:13:56;0.82;;;0.35;;
40955;SDS011;26687;48.254;11.454;2023-04-24T16:16:56;0.77;;;0.50;;
40955;SDS011;26687;48.254;11.454;2023-04-24T16:19:56;1.17;;;0.40;;
40955;SDS011;26687;48.254;11.454;2023-04-24T16:22:56;1.20;;;0.30;;
40955;SDS011;26687;48.254;11.454;2023-04-24T16:25:56;1.45;;;0.22;;
40955;SDS011;26687;48.254;11.454;2023-04-24T16:28:57;0.57;;;0.30;;
40955;SDS011;26687;48.254;11.454;2023-04-24T16:31:57;1.20;;;0.40;;
40955;SDS011;26687;48.254;11.454;2023-04-24T16:34:57;1.53;;;0.43;;
40955;SDS011;26687;48.254;11.454;2023-04-24T16:37:57;1.67;;;0.30;;
40955;SDS011;26687;48.254;11.454;2023-04-24T16:40:57;1.25;;;0.30;;
40955;SDS011;26687;48.254;11.454;2023-04-24T16:43:58;1.00;;;0.50;;
40955;SDS011;26687;48.254;11.454;2023-04-24T16:46:58;0.30;;;0.30;;
40955;SDS011;26687;48.254;11.454;2023-04-24T16:49:58;2.22;;;0.50;;
40955;SDS011;26687;48.254;11.454;2023-04-24T16:52:58;2.45;;;0.75;;
40955;SDS011;26687;48.254;11.454;2023-04-24T16:55:58;0.80;;;0.50;;
40955;SDS011;26687;48.254;11.454;2023-04-24T16:58:59;1.03;;;0.40;;
40955;SDS011;26687;48.254;11.454;2023-04-24T17:01:59;0.60;;;0.33;;
40955;SDS011;26687;48.254;11.454;2023-04-24T17:05:00;6.05;;;1.08;;
40955;SDS011;26687;48.254;11.454;2023-04-24T17:08:00;2.30;;;0.90;;
40955;SDS011;26687;48.254;11.454;2023-04-24T17:11:00;0.57;;;0.40;;
40955;SDS011;26687;48.254;11.454;2023-04-24T17:14:00;0.77;;;0.50;;
40955;SDS011;26687;48.254;11.454;2023-04-24T17:17:00;0.63;;;0.47;;
40955;SDS011;26687;48.254;11.454;2023-04-24T17:20:01;1.20;;;0.30;;
40955;SDS011;26687;48.254;11.454;2023-04-24T17:23:01;0.97;;;0.40;;
40955;SDS011;26687;48.254;11.454;2023-04-24T17:26:01;1.10;;;0.60;;
40955;SDS011;26687;48.254;11.454;2023-04-24T17:29:01;1.40;;;0.68;;
40955;SDS011;26687;48.254;11.454;2023-04-24T17:32:02;2.88;;;0.50;;
40955;SDS011;26687;48.254;11.454;2023-04-24T17:35:02;1.42;;;0.43;;
40955;SDS011;26687;48.254;11.454;2023-04-24T17:38:02;0.52;;;0.38;;
40955;SDS011;26687;48.254;11.454;2023-04-24T17:41:03;0.87;;;0.60;;
40955;SDS011;26687;48.254;11.454;2023-04-24T17:44:03;0.68;;;0.57;;
40955;SDS011;26687;48.254;11.454;2023-04-24T17:47:03;1.42;;;0.55;;
40955;SDS011;26687;48.254;11.454;2023-04-24T17:50:03;1.20;;;0.60;;
40955;SDS011;26687;48.254;11.454;2023-04-24T17:53:04;0.60;;;0.40;;
40955;SDS011;26687;48.254;11.454;2023-04-24T17:56:05;0.93;;;0.52;;
40955;SDS011;26687;48.254;11.454;2023-04-24T17:59:06;1.13;;;0.70;;
40955;SDS011;26687;48.254;11.454;2023-04-24T18:02:06;0.60;;;0.60;;
40955;SDS011;26687;48.254;11.454;2023-04-24T18:05:06;1.08;;;0.68;;